Bessemer, Alabama
Current Conditions -  °F | °C
As of 8:53 AM on Friday 31 Oct 2014 (Local Time) from KBHM Reporting Station
Broken Clouds Broken Clouds  
Wind Chill: 54°   Ceiling: 5500
Heat Index: 54°   Visibility: 10mi
Dew Point: 44°   Wind: 5mph
Humidity: 69%   Direction: 40°NE
Pressure: 30.01"   Gusts: NA
Location:  33.4°N, 86.95°W
Report Text: KBHM 311353Z 04004KT 10SM BKN055 BKN075 BKN100 12/07 A3001 RMK AO2 SLP160 T01220067
Loading
Personal Weather Stations






























Interactive Weather Map
Tropical Storm Tracking
New forecast layout! Learn more

10-Day Weather Forecast

Advertisements
Track Severe Weather on mobile